sensor_id;sensor_type;location;lat;lon;timestamp;pressure;altitude;pressure_sealevel;temperature;humidity
70217;BME280;57608;0.000;0.000;2022-07-11T00:00:07;98761.75;;;25.15;51.20
70217;BME280;57608;0.000;0.000;2022-07-11T00:02:34;98759.63;;;25.10;51.40
70217;BME280;57608;0.000;0.000;2022-07-11T00:05:00;98758.69;;;25.03;51.60
70217;BME280;57608;0.000;0.000;2022-07-11T00:07:27;98759.22;;;24.98;51.43
70217;BME280;57608;0.000;0.000;2022-07-11T00:09:53;98762.28;;;24.95;51.62
70217;BME280;57608;0.000;0.000;2022-07-11T00:12:19;98765.97;;;24.94;51.60
70217;BME280;57608;0.000;0.000;2022-07-11T00:14:47;98767.00;;;24.93;51.74
70217;BME280;57608;0.000;0.000;2022-07-11T00:17:13;98780.41;;;24.93;51.72
70217;BME280;57608;0.000;0.000;2022-07-11T00:19:38;98788.72;;;24.98;51.38
70217;BME280;57608;0.000;0.000;2022-07-11T00:22:05;98780.03;;;24.96;51.68
70217;BME280;57608;0.000;0.000;2022-07-11T00:24:31;98788.59;;;24.91;51.67
70217;BME280;57608;0.000;0.000;2022-07-11T00:26:57;98784.09;;;24.92;51.48
70217;BME280;57608;0.000;0.000;2022-07-11T00:29:22;98781.41;;;24.92;50.99
70217;BME280;57608;0.000;0.000;2022-07-11T00:31:48;98784.91;;;24.93;51.11
70217;BME280;57608;0.000;0.000;2022-07-11T00:34:14;98775.22;;;24.91;50.92
70217;BME280;57608;0.000;0.000;2022-07-11T00:36:41;98778.75;;;24.92;51.17
70217;BME280;57608;0.000;0.000;2022-07-11T00:39:06;98776.69;;;24.94;51.21
70217;BME280;57608;0.000;0.000;2022-07-11T00:41:32;98780.50;;;25.00;50.85
70217;BME280;57608;0.000;0.000;2022-07-11T00:43:59;98780.97;;;25.03;50.65
70217;BME280;57608;0.000;0.000;2022-07-11T00:46:26;98775.06;;;25.08;50.66
70217;BME280;57608;0.000;0.000;2022-07-11T00:48:52;98778.56;;;25.08;50.72
70217;BME280;57608;0.000;0.000;2022-07-11T00:51:19;98778.41;;;25.10;50.29
70217;BME280;57608;0.000;0.000;2022-07-11T00:53:49;98774.53;;;25.13;50.54
70217;BME280;57608;0.000;0.000;2022-07-11T00:56:17;98768.78;;;25.16;50.14
70217;BME280;57608;0.000;0.000;2022-07-11T00:58:44;98770.47;;;25.17;50.29
70217;BME280;57608;0.000;0.000;2022-07-11T01:01:10;98759.72;;;25.17;50.22
70217;BME280;57608;0.000;0.000;2022-07-11T01:03:36;98759.72;;;25.17;49.98
70217;BME280;57608;0.000;0.000;2022-07-11T01:06:08;98751.50;;;25.18;50.00
70217;BME280;57608;0.000;0.000;2022-07-11T01:08:35;98762.03;;;25.20;50.12
70217;BME280;57608;0.000;0.000;2022-07-11T01:11:04;98744.28;;;25.19;50.06
70217;BME280;57608;0.000;0.000;2022-07-11T01:13:30;98750.69;;;25.18;49.98
70217;BME280;57608;0.000;0.000;2022-07-11T01:16:19;98739.31;;;25.16;49.97
70217;BME280;57608;0.000;0.000;2022-07-11T01:18:52;98743.00;;;25.15;49.96
70217;BME280;57608;0.000;0.000;2022-07-11T01:21:35;98736.25;;;25.19;50.02
70217;BME280;57608;0.000;0.000;2022-07-11T01:24:05;98737.28;;;25.18;49.67
70217;BME280;57608;0.000;0.000;2022-07-11T01:26:31;98738.28;;;25.17;50.15
70217;BME280;57608;0.000;0.000;2022-07-11T01:29:13;98734.94;;;25.15;49.75
70217;BME280;57608;0.000;0.000;2022-07-11T01:31:40;98729.31;;;25.10;49.75
70217;BME280;57608;0.000;0.000;2022-07-11T01:34:06;98735.59;;;25.02;49.98
70217;BME280;57608;0.000;0.000;2022-07-11T01:36:31;98737.63;;;25.00;50.00
70217;BME280;57608;0.000;0.000;2022-07-11T01:38:57;98720.81;;;24.91;50.38
70217;BME280;57608;0.000;0.000;2022-07-11T01:41:23;98726.88;;;24.85;50.38
70217;BME280;57608;0.000;0.000;2022-07-11T01:43:48;98726.25;;;24.83;49.99
70217;BME280;57608;0.000;0.000;2022-07-11T01:46:14;98726.41;;;24.81;50.54
70217;BME280;57608;0.000;0.000;2022-07-11T01:48:40;98729.84;;;24.75;50.54
70217;BME280;57608;0.000;0.000;2022-07-11T01:51:06;98712.09;;;24.74;50.56
70217;BME280;57608;0.000;0.000;2022-07-11T01:53:31;98712.91;;;24.74;50.63
70217;BME280;57608;0.000;0.000;2022-07-11T01:55:57;98697.50;;;24.77;50.73
70217;BME280;57608;0.000;0.000;2022-07-11T01:58:22;98696.84;;;24.74;50.58
70217;BME280;57608;0.000;0.000;2022-07-11T02:00:48;98682.44;;;24.76;50.30
70217;BME280;57608;0.000;0.000;2022-07-11T02:03:13;98688.19;;;24.72;50.36
70217;BME280;57608;0.000;0.000;2022-07-11T02:05:39;98696.22;;;24.72;50.11
70217;BME280;57608;0.000;0.000;2022-07-11T02:08:06;98692.69;;;24.72;50.37
70217;BME280;57608;0.000;0.000;2022-07-11T02:10:42;98690.56;;;24.67;50.19
70217;BME280;57608;0.000;0.000;2022-07-11T02:13:08;98689.28;;;24.63;50.44
70217;BME280;57608;0.000;0.000;2022-07-11T02:15:35;98689.78;;;24.58;50.74
70217;BME280;57608;0.000;0.000;2022-07-11T02:18:01;98686.91;;;24.60;50.97
70217;BME280;57608;0.000;0.000;2022-07-11T02:20:26;98691.06;;;24.63;50.95
70217;BME280;57608;0.000;0.000;2022-07-11T02:22:52;98693.41;;;24.66;50.81
70217;BME280;57608;0.000;0.000;2022-07-11T02:25:18;98709.22;;;24.76;50.96
70217;BME280;57608;0.000;0.000;2022-07-11T02:27:44;98713.88;;;24.82;50.48
70217;BME280;57608;0.000;0.000;2022-07-11T02:30:10;98715.16;;;24.86;50.63
70217;BME280;57608;0.000;0.000;2022-07-11T02:32:36;98716.44;;;24.90;50.26
70217;BME280;57608;0.000;0.000;2022-07-11T02:35:03;98711.56;;;24.94;50.32
70217;BME280;57608;0.000;0.000;2022-07-11T02:37:28;98714.06;;;24.95;50.06
70217;BME280;57608;0.000;0.000;2022-07-11T02:39:54;98716.53;;;24.97;49.97
70217;BME280;57608;0.000;0.000;2022-07-11T02:42:19;98713.69;;;24.98;49.85
70217;BME280;57608;0.000;0.000;2022-07-11T02:44:45;98707.97;;;25.01;50.08
70217;BME280;57608;0.000;0.000;2022-07-11T02:47:10;98713.34;;;25.01;49.85
70217;BME280;57608;0.000;0.000;2022-07-11T02:49:36;98709.63;;;25.02;49.77
70217;BME280;57608;0.000;0.000;2022-07-11T02:52:02;98707.59;;;25.04;49.89
70217;BME280;57608;0.000;0.000;2022-07-11T02:54:27;98707.59;;;25.04;49.80
70217;BME280;57608;0.000;0.000;2022-07-11T02:56:54;98699.56;;;25.04;49.72
70217;BME280;57608;0.000;0.000;2022-07-11T02:59:20;98695.19;;;25.03;49.56
70217;BME280;57608;0.000;0.000;2022-07-11T03:01:46;98699.28;;;24.99;49.75
70217;BME280;57608;0.000;0.000;2022-07-11T03:04:11;98693.63;;;24.94;49.58
70217;BME280;57608;0.000;0.000;2022-07-11T03:06:38;98694.19;;;24.89;49.69
70217;BME280;57608;0.000;0.000;2022-07-11T03:09:04;98685.50;;;24.87;50.08
70217;BME280;57608;0.000;0.000;2022-07-11T03:11:30;98692.91;;;24.85;50.05
70217;BME280;57608;0.000;0.000;2022-07-11T03:13:56;98696.13;;;24.81;50.09
70217;BME280;57608;0.000;0.000;2022-07-11T03:16:21;98693.16;;;24.76;49.97
70217;BME280;57608;0.000;0.000;2022-07-11T03:18:46;98698.91;;;24.72;50.04
70217;BME280;57608;0.000;0.000;2022-07-11T03:21:12;98706.09;;;24.72;50.45
70217;BME280;57608;0.000;0.000;2022-07-11T03:23:38;98701.38;;;24.74;50.22
70217;BME280;57608;0.000;0.000;2022-07-11T03:26:03;98705.53;;;24.77;50.14
70217;BME280;57608;0.000;0.000;2022-07-11T03:28:31;98705.16;;;24.80;50.08
70217;BME280;57608;0.000;0.000;2022-07-11T03:30:57;98706.66;;;24.82;50.17
70217;BME280;57608;0.000;0.000;2022-07-11T03:33:22;98705.25;;;24.86;49.94
70217;BME280;57608;0.000;0.000;2022-07-11T03:35:48;98702.88;;;24.91;49.68
70217;BME280;57608;0.000;0.000;2022-07-11T03:38:18;98701.84;;;24.93;49.66
70217;BME280;57608;0.000;0.000;2022-07-11T03:40:44;98712.38;;;24.94;49.82
70217;BME280;57608;0.000;0.000;2022-07-11T03:43:10;98708.69;;;24.95;49.62
70217;BME280;57608;0.000;0.000;2022-07-11T03:45:35;98710.47;;;25.03;49.49
70217;BME280;57608;0.000;0.000;2022-07-11T03:48:02;98710.94;;;25.06;49.22
70217;BME280;57608;0.000;0.000;2022-07-11T03:50:31;98712.22;;;25.11;49.16
70217;BME280;57608;0.000;0.000;2022-07-11T03:53:00;98708.34;;;25.13;48.90
70217;BME280;57608;0.000;0.000;2022-07-11T03:55:27;98704.47;;;25.16;49.03
70217;BME280;57608;0.000;0.000;2022-07-11T03:57:52;98699.47;;;25.13;49.16
70217;BME280;57608;0.000;0.000;2022-07-11T04:00:22;98699.28;;;25.14;49.22
70217;BME280;57608;0.000;0.000;2022-07-11T04:02:48;98687.38;;;25.17;49.25
70217;BME280;57608;0.000;0.000;2022-07-11T04:05:14;98688.00;;;25.19;49.08
70217;BME280;57608;0.000;0.000;2022-07-11T04:07:39;98699.38;;;25.21;49.22
70217;BME280;57608;0.000;0.000;2022-07-11T04:10:06;98695.28;;;25.25;49.21
70217;BME280;57608;0.000;0.000;2022-07-11T04:12:32;98694.91;;;25.28;49.02
70217;BME280;57608;0.000;0.000;2022-07-11T04:14:57;98697.88;;;25.33;48.83
70217;BME280;57608;0.000;0.000;2022-07-11T04:17:23;98701.59;;;25.47;48.69
70217;BME280;57608;0.000;0.000;2022-07-11T04:19:49;98699.53;;;25.64;48.67
70217;BME280;57608;0.000;0.000;2022-07-11T04:22:14;98706.16;;;25.68;48.12
70217;BME280;57608;0.000;0.000;2022-07-11T04:24:40;98700.16;;;25.66;48.45
70217;BME280;57608;0.000;0.000;2022-07-11T04:27:06;98713.19;;;25.69;48.46
70217;BME280;57608;0.000;0.000;2022-07-11T04:29:31;98707.38;;;25.66;48.19
70217;BME280;57608;0.000;0.000;2022-07-11T04:31:57;98702.41;;;25.63;48.24
70217;BME280;57608;0.000;0.000;2022-07-11T04:34:22;98705.16;;;25.69;48.40
70217;BME280;57608;0.000;0.000;2022-07-11T04:36:48;98701.19;;;25.65;48.39
70217;BME280;57608;0.000;0.000;2022-07-11T04:39:13;98697.56;;;25.73;48.13
70217;BME280;57608;0.000;0.000;2022-07-11T04:41:39;98687.56;;;25.82;47.89
70217;BME280;57608;0.000;0.000;2022-07-11T04:44:04;98691.31;;;25.87;47.77
70217;BME280;57608;0.000;0.000;2022-07-11T04:46:30;98682.72;;;25.92;48.02
70217;BME280;57608;0.000;0.000;2022-07-11T04:48:57;98686.00;;;25.94;48.01
70217;BME280;57608;0.000;0.000;2022-07-11T04:51:23;98686.41;;;25.91;47.72
70217;BME280;57608;0.000;0.000;2022-07-11T04:53:52;98685.19;;;25.94;47.65
70217;BME280;57608;0.000;0.000;2022-07-11T04:56:20;98683.13;;;25.96;47.58
70217;BME280;57608;0.000;0.000;2022-07-11T04:58:45;98679.88;;;26.00;48.91
70217;BME280;57608;0.000;0.000;2022-07-11T05:01:11;98674.72;;;25.99;49.56
70217;BME280;57608;0.000;0.000;2022-07-11T05:03:36;98672.50;;;26.02;48.75
70217;BME280;57608;0.000;0.000;2022-07-11T05:06:03;98665.75;;;26.07;48.79
70217;BME280;57608;0.000;0.000;2022-07-11T05:08:29;98668.94;;;26.17;48.42
70217;BME280;57608;0.000;0.000;2022-07-11T05:10:55;98657.59;;;26.21;48.61
70217;BME280;57608;0.000;0.000;2022-07-11T05:13:20;98664.84;;;26.21;48.19
70217;BME280;57608;0.000;0.000;2022-07-11T05:15:46;98655.31;;;26.18;48.99
70217;BME280;57608;0.000;0.000;2022-07-11T05:18:14;98651.16;;;26.16;48.04
70217;BME280;57608;0.000;0.000;2022-07-11T05:20:39;98652.03;;;26.23;47.96
70217;BME280;57608;0.000;0.000;2022-07-11T05:23:04;98650.00;;;26.25;48.39
70217;BME280;57608;0.000;0.000;2022-07-11T05:25:30;98650.97;;;26.46;48.92
70217;BME280;57608;0.000;0.000;2022-07-11T05:27:56;98658.88;;;26.54;47.62
70217;BME280;57608;0.000;0.000;2022-07-11T05:30:21;98646.19;;;26.41;48.06
70217;BME280;57608;0.000;0.000;2022-07-11T05:32:47;98649.81;;;26.55;48.09
70217;BME280;57608;0.000;0.000;2022-07-11T05:35:12;98650.44;;;26.57;46.97
70217;BME280;57608;0.000;0.000;2022-07-11T05:37:38;98654.88;;;26.71;46.34
70217;BME280;57608;0.000;0.000;2022-07-11T05:40:04;98653.97;;;26.08;46.55
70217;BME280;57608;0.000;0.000;2022-07-11T05:42:31;98650.28;;;26.65;46.67
70217;BME280;57608;0.000;0.000;2022-07-11T05:44:57;98647.56;;;26.87;46.35
70217;BME280;57608;0.000;0.000;2022-07-11T05:47:22;98646.22;;;27.11;46.43
70217;BME280;57608;0.000;0.000;2022-07-11T05:49:48;98643.56;;;27.18;47.36
70217;BME280;57608;0.000;0.000;2022-07-11T05:52:13;98644.63;;;27.17;46.17
70217;BME280;57608;0.000;0.000;2022-07-11T05:54:39;98641.13;;;27.23;45.94
70217;BME280;57608;0.000;0.000;2022-07-11T05:57:05;98639.72;;;27.27;45.68
70217;BME280;57608;0.000;0.000;2022-07-11T05:59:30;98638.88;;;27.33;44.33
70217;BME280;57608;0.000;0.000;2022-07-11T06:01:56;98637.41;;;27.31;45.08
70217;BME280;57608;0.000;0.000;2022-07-11T06:04:21;98636.44;;;27.39;44.96
70217;BME280;57608;0.000;0.000;2022-07-11T06:06:47;98634.34;;;27.34;45.26
70217;BME280;57608;0.000;0.000;2022-07-11T06:09:13;98633.75;;;27.39;45.40
70217;BME280;57608;0.000;0.000;2022-07-11T06:11:38;98628.41;;;27.45;44.87
70217;BME280;57608;0.000;0.000;2022-07-11T06:14:04;98629.25;;;27.46;44.86
70217;BME280;57608;0.000;0.000;2022-07-11T06:16:31;98631.09;;;27.45;44.89
70217;BME280;57608;0.000;0.000;2022-07-11T06:18:57;98630.84;;;27.40;45.16
70217;BME280;57608;0.000;0.000;2022-07-11T06:21:26;98627.56;;;27.45;45.11
70217;BME280;57608;0.000;0.000;2022-07-11T06:23:52;98632.97;;;27.45;44.79
70217;BME280;57608;0.000;0.000;2022-07-11T06:26:18;98633.28;;;27.35;44.42
70217;BME280;57608;0.000;0.000;2022-07-11T06:28:46;98632.03;;;27.31;44.78
70217;BME280;57608;0.000;0.000;2022-07-11T06:31:12;98631.22;;;27.30;45.32
70217;BME280;57608;0.000;0.000;2022-07-11T06:33:38;98628.75;;;27.35;44.84
70217;BME280;57608;0.000;0.000;2022-07-11T06:36:04;98634.88;;;27.16;45.03
70217;BME280;57608;0.000;0.000;2022-07-11T06:38:30;98627.22;;;27.13;45.52
70217;BME280;57608;0.000;0.000;2022-07-11T06:40:56;98624.53;;;27.13;45.50
70217;BME280;57608;0.000;0.000;2022-07-11T06:43:24;98619.13;;;27.13;45.93
70217;BME280;57608;0.000;0.000;2022-07-11T06:45:52;98608.38;;;27.13;46.34
70217;BME280;57608;0.000;0.000;2022-07-11T06:48:17;98610.50;;;27.17;46.14
70217;BME280;57608;0.000;0.000;2022-07-11T06:50:43;98615.03;;;27.17;46.19
70217;BME280;57608;0.000;0.000;2022-07-11T06:53:09;98610.06;;;27.14;47.23
70217;BME280;57608;0.000;0.000;2022-07-11T06:55:35;98618.75;;;27.16;46.99
70217;BME280;57608;0.000;0.000;2022-07-11T06:58:01;98608.44;;;27.19;47.07
70217;BME280;57608;0.000;0.000;2022-07-11T07:00:27;98608.03;;;27.23;46.50
70217;BME280;57608;0.000;0.000;2022-07-11T07:02:55;98611.38;;;27.31;45.85
70217;BME280;57608;0.000;0.000;2022-07-11T07:05:24;98612.41;;;27.30;46.20
70217;BME280;57608;0.000;0.000;2022-07-11T07:07:51;98612.63;;;27.35;46.51
70217;BME280;57608;0.000;0.000;2022-07-11T07:10:16;98602.47;;;27.31;46.93
70217;BME280;57608;0.000;0.000;2022-07-11T07:12:42;98608.06;;;27.36;45.81
70217;BME280;57608;0.000;0.000;2022-07-11T07:15:10;98603.78;;;27.42;45.95
70217;BME280;57608;0.000;0.000;2022-07-11T07:17:35;98605.56;;;27.34;45.86
70217;BME280;57608;0.000;0.000;2022-07-11T07:20:01;98607.44;;;27.34;46.33
70217;BME280;57608;0.000;0.000;2022-07-11T07:22:26;98602.25;;;27.32;46.28
70217;BME280;57608;0.000;0.000;2022-07-11T07:24:52;98601.03;;;27.35;46.10
70217;BME280;57608;0.000;0.000;2022-07-11T07:27:17;98594.00;;;27.34;46.11
70217;BME280;57608;0.000;0.000;2022-07-11T07:29:43;98607.25;;;27.35;46.11
70217;BME280;57608;0.000;0.000;2022-07-11T07:32:08;98608.06;;;27.36;46.48
70217;BME280;57608;0.000;0.000;2022-07-11T07:34:34;98604.75;;;27.34;46.09
70217;BME280;57608;0.000;0.000;2022-07-11T07:36:59;98592.78;;;27.36;46.07
70217;BME280;57608;0.000;0.000;2022-07-11T07:39:25;98602.25;;;27.32;46.24
70217;BME280;57608;0.000;0.000;2022-07-11T07:41:51;98587.38;;;27.36;45.60
70217;BME280;57608;0.000;0.000;2022-07-11T07:44:16;98586.78;;;27.41;45.61
70217;BME280;57608;0.000;0.000;2022-07-11T07:46:42;98605.38;;;27.36;45.75
70217;BME280;57608;0.000;0.000;2022-07-11T07:49:07;98592.19;;;27.41;46.03
70217;BME280;57608;0.000;0.000;2022-07-11T07:51:33;98589.28;;;27.43;45.69
70217;BME280;57608;0.000;0.000;2022-07-11T07:53:58;98589.50;;;27.41;45.39
70217;BME280;57608;0.000;0.000;2022-07-11T07:56:24;98590.72;;;27.39;45.72
70217;BME280;57608;0.000;0.000;2022-07-11T07:58:50;98584.47;;;27.31;45.78
70217;BME280;57608;0.000;0.000;2022-07-11T08:01:18;98591.91;;;27.29;46.11
70217;BME280;57608;0.000;0.000;2022-07-11T08:04:08;98594.38;;;27.24;46.33
70217;BME280;57608;0.000;0.000;2022-07-11T08:06:35;98596.44;;;27.22;45.90
70217;BME280;57608;0.000;0.000;2022-07-11T08:09:03;98589.41;;;27.21;45.99
70217;BME280;57608;0.000;0.000;2022-07-11T08:11:28;98595.16;;;27.18;45.81
70217;BME280;57608;0.000;0.000;2022-07-11T08:13:56;98588.78;;;27.19;45.72
70217;BME280;57608;0.000;0.000;2022-07-11T08:16:22;98591.06;;;27.22;44.20
70217;BME280;57608;0.000;0.000;2022-07-11T08:18:48;98593.34;;;27.18;44.95
70217;BME280;57608;0.000;0.000;2022-07-11T08:21:13;98586.72;;;27.21;44.78
70217;BME280;57608;0.000;0.000;2022-07-11T08:23:39;98581.63;;;27.40;43.91
70217;BME280;57608;0.000;0.000;2022-07-11T08:26:04;98582.88;;;27.44;44.50
70217;BME280;57608;0.000;0.000;2022-07-11T08:28:30;98582.41;;;27.33;43.87
70217;BME280;57608;0.000;0.000;2022-07-11T08:30:58;98581.25;;;27.49;43.35
70217;BME280;57608;0.000;0.000;2022-07-11T08:33:23;98574.66;;;27.92;43.38
70217;BME280;57608;0.000;0.000;2022-07-11T08:35:49;98582.28;;;27.68;43.48
70217;BME280;57608;0.000;0.000;2022-07-11T08:38:14;98576.31;;;27.66;44.14
70217;BME280;57608;0.000;0.000;2022-07-11T08:40:48;98560.59;;;27.83;42.76
70217;BME280;57608;0.000;0.000;2022-07-11T08:43:22;98569.72;;;28.02;42.97
70217;BME280;57608;0.000;0.000;2022-07-11T08:45:48;98560.59;;;28.03;44.28
70217;BME280;57608;0.000;0.000;2022-07-11T08:48:16;98558.94;;;28.16;42.19
70217;BME280;57608;0.000;0.000;2022-07-11T08:50:41;98575.13;;;28.16;42.27
70217;BME280;57608;0.000;0.000;2022-07-11T08:53:07;98568.47;;;28.05;42.84
70217;BME280;57608;0.000;0.000;2022-07-11T08:55:32;98569.91;;;28.01;42.49
70217;BME280;57608;0.000;0.000;2022-07-11T08:57:59;98571.56;;;28.15;42.29
70217;BME280;57608;0.000;0.000;2022-07-11T09:00:25;98573.25;;;28.03;43.66
70217;BME280;57608;0.000;0.000;2022-07-11T09:02:53;98568.47;;;28.05;43.46
70217;BME280;57608;0.000;0.000;2022-07-11T09:05:19;98566.19;;;28.02;43.14
70217;BME280;57608;0.000;0.000;2022-07-11T09:07:49;98560.16;;;27.93;43.80
70217;BME280;57608;0.000;0.000;2022-07-11T09:10:16;98561.00;;;27.94;43.97
70217;BME280;57608;0.000;0.000;2022-07-11T09:13:02;98562.66;;;28.01;43.14
70217;BME280;57608;0.000;0.000;2022-07-11T09:15:40;98558.91;;;27.89;43.50
70217;BME280;57608;0.000;0.000;2022-07-11T09:20:59;98554.16;;;27.91;43.20
70217;BME280;57608;0.000;0.000;2022-07-11T09:23:44;98552.72;;;27.82;43.05
70217;BME280;57608;0.000;0.000;2022-07-11T09:26:30;98543.78;;;27.88;42.09
70217;BME280;57608;0.000;0.000;2022-07-11T09:29:10;98556.88;;;27.91;42.44
70217;BME280;57608;0.000;0.000;2022-07-11T09:31:37;98537.81;;;27.86;42.46
70217;BME280;57608;0.000;0.000;2022-07-11T09:34:13;98545.25;;;27.77;43.18
70217;BME280;57608;0.000;0.000;2022-07-11T09:39:10;98542.16;;;27.67;42.10
70217;BME280;57608;0.000;0.000;2022-07-11T09:41:37;98540.69;;;27.64;42.42
70217;BME280;57608;0.000;0.000;2022-07-11T09:44:13;98541.50;;;27.58;42.52
70217;BME280;57608;0.000;0.000;2022-07-11T09:46:40;98528.69;;;27.53;42.98
70217;BME280;57608;0.000;0.000;2022-07-11T09:49:06;98526.59;;;27.49;42.90
70217;BME280;57608;0.000;0.000;2022-07-11T09:51:34;98523.31;;;27.47;42.29
70217;BME280;57608;0.000;0.000;2022-07-11T09:54:00;98510.88;;;27.52;42.68
70217;BME280;57608;0.000;0.000;2022-07-11T09:56:46;98519.56;;;27.48;43.14
70217;BME280;57608;0.000;0.000;2022-07-11T09:59:17;98504.88;;;27.44;42.42
70217;BME280;57608;0.000;0.000;2022-07-11T10:01:44;98509.22;;;27.51;41.58
70217;BME280;57608;0.000;0.000;2022-07-11T10:04:09;98514.22;;;27.55;41.45
70217;BME280;57608;0.000;0.000;2022-07-11T10:06:36;98505.06;;;27.49;41.52
70217;BME280;57608;0.000;0.000;2022-07-11T10:09:03;98509.84;;;27.67;39.42
70217;BME280;57608;0.000;0.000;2022-07-11T10:11:31;98509.63;;;27.68;39.57
70217;BME280;57608;0.000;0.000;2022-07-11T10:13:59;98500.34;;;27.58;40.97
70217;BME280;57608;0.000;0.000;2022-07-11T10:17:09;98503.84;;;27.58;41.43
70217;BME280;57608;0.000;0.000;2022-07-11T10:19:49;98512.13;;;27.50;41.55
70217;BME280;57608;0.000;0.000;2022-07-11T10:25:02;98507.59;;;27.70;38.79
70217;BME280;57608;0.000;0.000;2022-07-11T10:27:36;98506.13;;;27.88;38.53
70217;BME280;57608;0.000;0.000;2022-07-11T10:30:04;98505.31;;;27.81;39.87
70217;BME280;57608;0.000;0.000;2022-07-11T10:32:30;98498.47;;;27.85;39.04
70217;BME280;57608;0.000;0.000;2022-07-11T10:35:09;98519.19;;;27.91;38.76
70217;BME280;57608;0.000;0.000;2022-07-11T10:37:50;98516.69;;;27.96;39.54
70217;BME280;57608;0.000;0.000;2022-07-11T10:40:40;98500.13;;;27.86;40.30
70217;BME280;57608;0.000;0.000;2022-07-11T10:43:06;98510.88;;;28.13;39.06
70217;BME280;57608;0.000;0.000;2022-07-11T10:48:14;98521.66;;;27.93;40.19
70217;BME280;57608;0.000;0.000;2022-07-11T10:50:39;98495.56;;;27.93;39.49
70217;BME280;57608;0.000;0.000;2022-07-11T10:53:10;98501.38;;;27.90;39.74
70217;BME280;57608;0.000;0.000;2022-07-11T10:55:39;98504.66;;;27.92;39.74
70217;BME280;57608;0.000;0.000;2022-07-11T11:00:38;98502.22;;;28.04;39.14
70217;BME280;57608;0.000;0.000;2022-07-11T11:03:09;98505.06;;;28.23;38.34
70217;BME280;57608;0.000;0.000;2022-07-11T11:05:50;98496.78;;;28.24;38.09
70217;BME280;57608;0.000;0.000;2022-07-11T11:11:05;98501.34;;;28.10;38.39
70217;BME280;57608;0.000;0.000;2022-07-11T11:13:33;98511.31;;;28.10;39.06
70217;BME280;57608;0.000;0.000;2022-07-11T11:16:01;98503.81;;;27.98;38.50
70217;BME280;57608;0.000;0.000;2022-07-11T11:18:34;98497.84;;;27.83;40.28
70217;BME280;57608;0.000;0.000;2022-07-11T11:23:45;98491.41;;;27.84;39.15
70217;BME280;57608;0.000;0.000;2022-07-11T11:26:17;98494.31;;;27.89;39.12
70217;BME280;57608;0.000;0.000;2022-07-11T11:29:03;98493.06;;;28.18;38.16
70217;BME280;57608;0.000;0.000;2022-07-11T11:31:30;98486.84;;;28.18;37.99
70217;BME280;57608;0.000;0.000;2022-07-11T11:33:57;98486.25;;;28.16;38.31
70217;BME280;57608;0.000;0.000;2022-07-11T11:36:24;98489.56;;;28.11;38.50
70217;BME280;57608;0.000;0.000;2022-07-11T11:38:50;98484.34;;;28.23;37.76
70217;BME280;57608;0.000;0.000;2022-07-11T11:41:23;98496.78;;;28.24;37.37
70217;BME280;57608;0.000;0.000;2022-07-11T11:43:50;98490.94;;;28.41;37.06
70217;BME280;57608;0.000;0.000;2022-07-11T11:46:16;98487.28;;;28.15;37.89
70217;BME280;57608;0.000;0.000;2022-07-11T11:48:42;98483.97;;;28.06;38.02
70217;BME280;57608;0.000;0.000;2022-07-11T11:51:13;98471.13;;;28.15;37.92
70217;BME280;57608;0.000;0.000;2022-07-11T11:53:40;98503.22;;;28.16;37.97
70217;BME280;57608;0.000;0.000;2022-07-11T11:58:56;98490.13;;;28.33;37.74
70217;BME280;57608;0.000;0.000;2022-07-11T12:01:28;98496.75;;;28.38;36.85
70217;BME280;57608;0.000;0.000;2022-07-11T12:04:02;98499.03;;;28.27;38.01
70217;BME280;57608;0.000;0.000;2022-07-11T12:06:31;98488.28;;;28.21;37.77
70217;BME280;57608;0.000;0.000;2022-07-11T12:09:01;98473.59;;;28.16;38.44
70217;BME280;57608;0.000;0.000;2022-07-11T12:11:27;98490.19;;;28.13;38.42
70217;BME280;57608;0.000;0.000;2022-07-11T12:14:01;98494.13;;;28.04;38.37
70217;BME280;57608;0.000;0.000;2022-07-11T12:16:27;98481.88;;;28.15;37.21
70217;BME280;57608;0.000;0.000;2022-07-11T12:19:14;98493.47;;;28.15;37.76
70217;BME280;57608;0.000;0.000;2022-07-11T12:21:47;98502.41;;;28.16;37.82
70217;BME280;57608;0.000;0.000;2022-07-11T12:24:22;98508.84;;;28.08;38.65
70217;BME280;57608;0.000;0.000;2022-07-11T12:26:48;98512.53;;;28.14;37.53
70217;BME280;57608;0.000;0.000;2022-07-11T12:29:16;98522.03;;;28.37;37.13
70217;BME280;57608;0.000;0.000;2022-07-11T12:31:45;98493.59;;;28.54;36.67
70217;BME280;57608;0.000;0.000;2022-07-11T12:34:12;98497.78;;;28.43;37.13
70217;BME280;57608;0.000;0.000;2022-07-11T12:36:38;98490.50;;;28.44;36.82
70217;BME280;57608;0.000;0.000;2022-07-11T12:39:04;98492.41;;;28.37;37.56
70217;BME280;57608;0.000;0.000;2022-07-11T12:41:31;98488.66;;;28.44;37.25
70217;BME280;57608;0.000;0.000;2022-07-11T12:43:57;98496.13;;;28.42;37.59
70217;BME280;57608;0.000;0.000;2022-07-11T12:46:41;98487.63;;;28.39;38.01
70217;BME280;57608;0.000;0.000;2022-07-11T12:49:12;98513.97;;;28.23;38.39
70217;BME280;57608;0.000;0.000;2022-07-11T12:51:42;98518.72;;;28.34;37.88
70217;BME280;57608;0.000;0.000;2022-07-11T12:54:14;98497.81;;;28.37;37.78
70217;BME280;57608;0.000;0.000;2022-07-11T12:56:50;98508.16;;;28.40;37.86
70217;BME280;57608;0.000;0.000;2022-07-11T12:59:20;98500.47;;;28.43;37.02
70217;BME280;57608;0.000;0.000;2022-07-11T13:01:59;98517.44;;;28.50;36.86
70217;BME280;57608;0.000;0.000;2022-07-11T13:04:33;98505.84;;;28.50;36.61
70217;BME280;57608;0.000;0.000;2022-07-11T13:07:23;98503.53;;;28.47;36.58
70217;BME280;57608;0.000;0.000;2022-07-11T13:10:08;98515.41;;;28.32;37.34
70217;BME280;57608;0.000;0.000;2022-07-11T13:12:34;98506.25;;;28.47;36.80
70217;BME280;57608;0.000;0.000;2022-07-11T13:15:03;98505.84;;;28.50;36.48
70217;BME280;57608;0.000;0.000;2022-07-11T13:17:39;98508.97;;;28.33;37.17
70217;BME280;57608;0.000;0.000;2022-07-11T13:20:10;98504.28;;;27.89;33.72
70217;BME280;57608;0.000;0.000;2022-07-11T13:22:41;98506.66;;;27.30;39.46
70217;BME280;57608;0.000;0.000;2022-07-11T13:25:08;98516.91;;;27.75;39.53
70217;BME280;57608;0.000;0.000;2022-07-11T13:27:36;98515.69;;;28.04;38.67
70217;BME280;57608;0.000;0.000;2022-07-11T13:30:02;98513.75;;;28.25;37.97
70217;BME280;57608;0.000;0.000;2022-07-11T13:32:35;98516.25;;;28.33;37.81
70217;BME280;57608;0.000;0.000;2022-07-11T13:35:01;98506.69;;;28.37;37.39